sensor_id;sensor_type;location;lat;lon;timestamp;temperature;humidity
27870;DHT22;15225;50.730;4.244;2023-04-03T18:12:59;9.00;1.00
27870;DHT22;15225;50.730;4.244;2023-04-03T18:15:25;8.80;1.00
27870;DHT22;15225;50.730;4.244;2023-04-03T18:17:51;8.80;1.00
27870;DHT22;15225;50.730;4.244;2023-04-03T18:20:21;8.90;1.00
27870;DHT22;15225;50.730;4.244;2023-04-03T18:22:47;9.00;1.00
27870;DHT22;15225;50.730;4.244;2023-04-03T18:25:13;9.10;1.00
27870;DHT22;15225;50.730;4.244;2023-04-03T18:27:41;9.10;1.00
27870;DHT22;15225;50.730;4.244;2023-04-03T18:30:12;9.00;1.00
27870;DHT22;15225;50.730;4.244;2023-04-03T18:32:38;9.00;1.00
27870;DHT22;15225;50.730;4.244;2023-04-03T18:35:05;9.10;1.00
27870;DHT22;15225;50.730;4.244;2023-04-03T18:37:31;9.10;1.00
27870;DHT22;15225;50.730;4.244;2023-04-03T18:39:56;9.00;1.00
27870;DHT22;15225;50.730;4.244;2023-04-03T18:42:24;8.80;1.00
27870;DHT22;15225;50.730;4.244;2023-04-03T18:44:53;8.90;1.00
27870;DHT22;15225;50.730;4.244;2023-04-03T18:47:21;8.80;1.00
27870;DHT22;15225;50.730;4.244;2023-04-03T18:49:47;8.90;1.00
27870;DHT22;15225;50.730;4.244;2023-04-03T18:52:13;8.70;1.00
27870;DHT22;15225;50.730;4.244;2023-04-03T18:54:38;8.50;1.00
27870;DHT22;15225;50.730;4.244;2023-04-03T18:57:05;8.50;1.00
27870;DHT22;15225;50.730;4.244;2023-04-03T18:59:31;8.40;1.00
27870;DHT22;15225;50.730;4.244;2023-04-03T19:01:57;8.40;1.00
27870;DHT22;15225;50.730;4.244;2023-04-03T19:04:25;8.40;1.00
27870;DHT22;15225;50.730;4.244;2023-04-03T19:06:51;8.30;1.00
27870;DHT22;15225;50.730;4.244;2023-04-03T19:09:17;8.40;1.00
27870;DHT22;15225;50.730;4.244;2023-04-03T19:11:43;8.40;1.00
27870;DHT22;15225;50.730;4.244;2023-04-03T19:14:09;8.40;1.00
27870;DHT22;15225;50.730;4.244;2023-04-03T19:16:34;8.30;1.00
27870;DHT22;15225;50.730;4.244;2023-04-03T19:19:00;8.40;1.00
27870;DHT22;15225;50.730;4.244;2023-04-03T19:21:26;8.40;1.00
27870;DHT22;15225;50.730;4.244;2023-04-03T19:23:51;8.30;1.00
27870;DHT22;15225;50.730;4.244;2023-04-03T19:26:17;8.10;1.00
27870;DHT22;15225;50.730;4.244;2023-04-03T19:28:44;8.10;1.00
27870;DHT22;15225;50.730;4.244;2023-04-03T19:31:13;8.10;1.00
27870;DHT22;15225;50.730;4.244;2023-04-03T19:33:39;8.00;1.00
27870;DHT22;15225;50.730;4.244;2023-04-03T19:36:09;8.00;1.00
27870;DHT22;15225;50.730;4.244;2023-04-03T19:38:35;7.90;1.00
27870;DHT22;15225;50.730;4.244;2023-04-03T19:41:04;7.90;1.00
27870;DHT22;15225;50.730;4.244;2023-04-03T19:43:30;8.00;1.00
27870;DHT22;15225;50.730;4.244;2023-04-03T19:45:56;8.00;1.00
27870;DHT22;15225;50.730;4.244;2023-04-03T19:48:22;7.80;1.00
27870;DHT22;15225;50.730;4.244;2023-04-03T19:50:48;7.90;1.00
27870;DHT22;15225;50.730;4.244;2023-04-03T19:53:13;8.10;1.00
27870;DHT22;15225;50.730;4.244;2023-04-03T19:55:45;8.20;1.00
27870;DHT22;15225;50.730;4.244;2023-04-03T19:58:10;8.00;1.00
27870;DHT22;15225;50.730;4.244;2023-04-03T20:00:37;7.70;1.00
27870;DHT22;15225;50.730;4.244;2023-04-03T20:03:03;7.60;1.00
27870;DHT22;15225;50.730;4.244;2023-04-03T20:05:28;7.60;1.00
27870;DHT22;15225;50.730;4.244;2023-04-03T20:07:54;7.50;1.00
27870;DHT22;15225;50.730;4.244;2023-04-03T20:10:20;7.50;1.00
27870;DHT22;15225;50.730;4.244;2023-04-03T20:12:46;7.50;1.00
27870;DHT22;15225;50.730;4.244;2023-04-03T20:15:12;7.40;1.00
27870;DHT22;15225;50.730;4.244;2023-04-03T20:17:37;7.40;1.00
27870;DHT22;15225;50.730;4.244;2023-04-03T20:20:05;7.40;1.00
27870;DHT22;15225;50.730;4.244;2023-04-03T20:22:31;7.40;1.00
27870;DHT22;15225;50.730;4.244;2023-04-03T20:24:58;7.20;1.00
27870;DHT22;15225;50.730;4.244;2023-04-03T20:27:25;7.10;1.00
27870;DHT22;15225;50.730;4.244;2023-04-03T20:29:51;7.10;1.00
27870;DHT22;15225;50.730;4.244;2023-04-03T20:32:17;7.10;1.00
27870;DHT22;15225;50.730;4.244;2023-04-03T20:34:43;7.10;1.00
27870;DHT22;15225;50.730;4.244;2023-04-03T20:37:09;7.10;1.00
27870;DHT22;15225;50.730;4.244;2023-04-03T20:39:35;7.20;1.00
27870;DHT22;15225;50.730;4.244;2023-04-03T20:42:01;7.20;1.00
27870;DHT22;15225;50.730;4.244;2023-04-03T20:44:28;7.10;1.00
27870;DHT22;15225;50.730;4.244;2023-04-03T20:46:55;7.10;1.00
27870;DHT22;15225;50.730;4.244;2023-04-03T20:49:23;7.10;1.00
